createdAt,value
2022-12-03T00:00:08.936Z,2.02
2022-12-03T00:03:14.443Z,1.97
2022-12-03T00:06:17.532Z,2.10
2022-12-03T00:09:19.773Z,2.14
2022-12-03T00:12:21.739Z,2.12
2022-12-03T00:15:24.071Z,2.10
2022-12-03T00:18:25.968Z,2.02
2022-12-03T00:21:28.312Z,2.03
2022-12-03T00:24:30.286Z,2.01
2022-12-03T00:27:33.013Z,2.01
2022-12-03T00:30:35.386Z,2.15
2022-12-03T00:33:37.682Z,2.16
2022-12-03T00:36:39.661Z,2.11
2022-12-03T00:39:41.873Z,2.08
2022-12-03T00:42:43.777Z,2.06
2022-12-03T00:45:46.058Z,2.08
2022-12-03T00:48:48.193Z,2.10
2022-12-03T00:51:50.549Z,2.04
2022-12-03T00:54:52.629Z,2.03
2022-12-03T00:57:55.060Z,2.03
2022-12-03T01:00:56.981Z,1.96
2022-12-03T01:03:59.672Z,2.04
2022-12-03T01:07:01.589Z,2.09
2022-12-03T01:10:05.016Z,2.16
2022-12-03T01:13:06.966Z,2.12
2022-12-03T01:16:09.575Z,2.17
2022-12-03T01:19:16.117Z,2.16
2022-12-03T01:22:18.841Z,2.13
2022-12-03T01:25:20.860Z,2.18
2022-12-03T01:28:26.860Z,2.11
2022-12-03T01:31:47.381Z,2.14
2022-12-03T01:34:52.010Z,2.16
2022-12-03T01:37:54.168Z,2.10
2022-12-03T01:40:56.504Z,2.08
2022-12-03T01:43:58.831Z,2.12
2022-12-03T01:47:03.343Z,2.22
2022-12-03T01:50:06.821Z,2.25
2022-12-03T01:53:11.546Z,2.25
2022-12-03T01:56:17.601Z,2.14
2022-12-03T01:59:20.625Z,2.17
2022-12-03T02:02:27.094Z,2.21
2022-12-03T02:05:33.305Z,2.23
2022-12-03T02:08:36.321Z,2.21
2022-12-03T02:11:43.528Z,2.17
2022-12-03T02:14:46.864Z,2.24
2022-12-03T02:17:49.165Z,2.22
2022-12-03T02:21:01.918Z,2.24
2022-12-03T02:24:03.778Z,2.25
2022-12-03T02:27:06.328Z,2.33
2022-12-03T02:30:09.129Z,2.36
2022-12-03T02:33:11.457Z,2.37
2022-12-03T02:36:13.449Z,2.25
2022-12-03T02:39:15.749Z,2.30
2022-12-03T02:42:37.982Z,2.22
2022-12-03T02:45:42.682Z,2.24
2022-12-03T02:48:44.638Z,2.30
2022-12-03T02:51:46.954Z,2.32
2022-12-03T02:54:49.241Z,2.30
2022-12-03T02:57:51.709Z,2.30
2022-12-03T03:00:54.280Z,2.31
2022-12-03T03:03:56.523Z,2.22
2022-12-03T03:06:58.905Z,2.20
2022-12-03T03:10:01.899Z,2.33
2022-12-03T03:13:06.597Z,2.37
2022-12-03T03:16:09.096Z,2.29
2022-12-03T03:19:11.198Z,2.37
2022-12-03T03:22:14.068Z,2.33
2022-12-03T03:25:18.338Z,2.33
2022-12-03T03:28:20.599Z,2.35
2022-12-03T03:31:23.752Z,2.37
2022-12-03T03:34:26.212Z,2.25
2022-12-03T03:37:28.405Z,2.27
2022-12-03T03:40:30.964Z,2.34
2022-12-03T03:43:34.817Z,2.31
2022-12-03T03:46:37.621Z,2.33
2022-12-03T03:49:39.867Z,2.32
2022-12-03T03:52:42.705Z,2.25
2022-12-03T03:55:44.886Z,2.29
2022-12-03T03:58:47.113Z,2.31
2022-12-03T04:01:49.137Z,2.29
2022-12-03T04:04:51.979Z,2.25
2022-12-03T04:07:54.193Z,2.29
2022-12-03T04:11:15.068Z,2.27
2022-12-03T04:14:17.028Z,2.32
2022-12-03T04:17:19.336Z,2.26
2022-12-03T04:20:21.377Z,2.26
2022-12-03T04:23:29.242Z,2.24
2022-12-03T04:26:52.153Z,2.27
2022-12-03T04:29:54.837Z,2.34
2022-12-03T04:33:16.532Z,2.42
2022-12-03T04:36:18.697Z,2.42
2022-12-03T04:39:20.654Z,2.38
2022-12-03T04:42:24.177Z,2.46
2022-12-03T04:45:26.157Z,2.42
2022-12-03T04:48:29.071Z,2.32
2022-12-03T04:51:31.114Z,2.27
2022-12-03T04:54:33.785Z,2.22
2022-12-03T04:57:35.675Z,2.26
2022-12-03T05:00:37.937Z,2.23
2022-12-03T05:03:39.930Z,2.19
2022-12-03T05:06:42.659Z,2.11
2022-12-03T05:09:44.684Z,2.09
2022-12-03T05:12:47.266Z,1.97
2022-12-03T05:15:49.196Z,1.85
2022-12-03T05:18:51.459Z,1.78
2022-12-03T05:21:53.432Z,1.84
2022-12-03T05:24:56.042Z,1.83
2022-12-03T05:27:58.563Z,1.86
2022-12-03T05:31:01.021Z,1.87
2022-12-03T05:34:03.049Z,1.82
2022-12-03T05:37:05.308Z,1.83
2022-12-03T05:40:07.593Z,1.94
2022-12-03T05:43:09.858Z,2.03
2022-12-03T05:46:11.965Z,2.06
2022-12-03T05:49:14.302Z,2.07
2022-12-03T05:52:16.244Z,2.07
2022-12-03T05:55:18.759Z,2.08
2022-12-03T05:58:20.778Z,2.07
2022-12-03T06:01:23.041Z,2.10
2022-12-03T06:04:26.974Z,2.20
2022-12-03T06:07:29.007Z,2.29
2022-12-03T06:10:31.554Z,2.21
2022-12-03T06:13:33.525Z,2.18
2022-12-03T06:16:36.395Z,2.31
2022-12-03T06:19:38.493Z,2.31
2022-12-03T06:22:40.758Z,2.23
2022-12-03T06:25:42.704Z,2.39
2022-12-03T06:28:46.428Z,2.29
2022-12-03T06:31:48.355Z,2.41
2022-12-03T06:34:50.765Z,2.43
2022-12-03T06:37:52.814Z,2.39
2022-12-03T06:40:55.062Z,2.50
2022-12-03T06:43:57.097Z,2.61
2022-12-03T06:46:59.447Z,2.61
2022-12-03T06:50:01.587Z,2.61
2022-12-03T06:53:04.209Z,2.59
2022-12-03T06:56:06.220Z,2.68
2022-12-03T06:59:08.558Z,2.73
2022-12-03T07:02:11.801Z,2.66
2022-12-03T07:05:14.113Z,2.69
2022-12-03T07:08:16.140Z,2.65
2022-12-03T07:11:39.814Z,2.71
2022-12-03T07:14:41.728Z,2.65
2022-12-03T07:17:44.370Z,2.72
2022-12-03T07:20:46.471Z,2.83
2022-12-03T07:23:48.705Z,2.86
2022-12-03T07:26:50.733Z,2.91
2022-12-03T07:29:53.023Z,2.94
2022-12-03T07:32:55.176Z,2.94
2022-12-03T07:35:57.453Z,3.01
2022-12-03T07:39:00.644Z,2.86
2022-12-03T07:42:03.056Z,3.06
2022-12-03T07:45:05.703Z,3.20
2022-12-03T07:48:08.583Z,3.29
2022-12-03T07:51:15.306Z,3.23
2022-12-03T07:54:19.513Z,3.20
2022-12-03T07:57:21.457Z,3.31
2022-12-03T08:00:24.105Z,3.46
2022-12-03T08:03:26.310Z,3.55
2022-12-03T08:06:28.242Z,3.67
2022-12-03T08:09:31.447Z,3.77
2022-12-03T08:12:41.282Z,3.94
2022-12-03T08:15:43.909Z,3.89
2022-12-03T08:18:47.047Z,4.01
2022-12-03T08:21:49.274Z,4.16
2022-12-03T08:24:51.496Z,4.33
2022-12-03T08:27:56.624Z,4.39
2022-12-03T08:31:01.790Z,4.37
2022-12-03T08:34:15.704Z,4.44
2022-12-03T08:37:18.895Z,4.54
2022-12-03T08:40:32.731Z,4.69
2022-12-03T08:43:41.879Z,4.72
2022-12-03T08:46:44.686Z,4.66
2022-12-03T08:49:53.656Z,4.51
2022-12-03T08:53:20.036Z,4.28
2022-12-03T08:56:26.346Z,4.11
2022-12-03T08:59:30.571Z,4.01
2022-12-03T09:02:34.176Z,4.26
2022-12-03T09:05:37.331Z,4.40
2022-12-03T09:08:39.389Z,4.59
2022-12-03T09:11:43.246Z,4.74
2022-12-03T09:14:45.148Z,4.91
2022-12-03T09:17:48.841Z,4.92
2022-12-03T09:20:50.733Z,5.14
2022-12-03T09:23:52.968Z,5.40
2022-12-03T09:26:54.899Z,5.49
2022-12-03T09:29:57.896Z,5.55
2022-12-03T09:33:00.220Z,5.67
2022-12-03T09:36:02.498Z,5.70
2022-12-03T09:39:04.915Z,5.78
2022-12-03T09:42:07.526Z,5.75
2022-12-03T09:45:10.881Z,5.81
2022-12-03T09:48:18.095Z,6.16
2022-12-03T09:51:20.125Z,6.35
2022-12-03T09:54:24.386Z,6.31
2022-12-03T09:57:26.284Z,6.40
2022-12-03T10:00:30.149Z,6.63
2022-12-03T10:03:32.495Z,7.06
2022-12-03T10:06:34.449Z,7.39
2022-12-03T10:09:36.792Z,7.85
2022-12-03T10:12:38.727Z,8.22
2022-12-03T10:15:41.027Z,8.31
2022-12-03T10:18:47.272Z,8.21
2022-12-03T10:21:49.545Z,8.25
2022-12-03T10:25:06.075Z,8.15
2022-12-03T10:28:08.331Z,7.89
2022-12-03T10:31:11.447Z,7.74
2022-12-03T10:34:13.699Z,7.51
2022-12-03T10:37:15.661Z,7.40
2022-12-03T10:40:24.381Z,7.41
2022-12-03T10:43:28.464Z,7.52
2022-12-03T10:46:34.155Z,7.50
2022-12-03T10:49:36.476Z,7.74
2022-12-03T10:52:39.603Z,7.67
2022-12-03T10:55:43.188Z,7.33
2022-12-03T10:58:45.843Z,7.04
2022-12-03T11:01:48.249Z,6.94
2022-12-03T11:04:51.277Z,6.96
2022-12-03T11:07:53.781Z,6.90
2022-12-03T11:10:57.334Z,6.92
2022-12-03T11:14:00.158Z,6.94
2022-12-03T11:17:02.450Z,7.16
2022-12-03T11:20:04.904Z,7.36
2022-12-03T11:23:10.300Z,7.35
2022-12-03T11:26:19.292Z,7.31
2022-12-03T11:29:43.257Z,7.22
2022-12-03T11:32:45.188Z,7.91
2022-12-03T11:36:02.707Z,9.31
2022-12-03T11:39:04.701Z,10.18
2022-12-03T11:42:28.437Z,10.74
2022-12-03T11:45:35.464Z,10.69
2022-12-03T11:48:44.208Z,11.02
2022-12-03T11:51:46.138Z,10.99
2022-12-03T11:54:50.251Z,11.00
2022-12-03T11:57:57.061Z,10.60
2022-12-03T12:01:00.688Z,9.84
2022-12-03T12:04:04.074Z,9.46
2022-12-03T12:07:06.602Z,9.18
2022-12-03T12:10:08.969Z,9.27
2022-12-03T12:13:26.302Z,9.18
2022-12-03T12:16:39.714Z,9.13
2022-12-03T12:19:43.158Z,8.98
2022-12-03T12:22:45.485Z,8.91
2022-12-03T12:25:53.750Z,8.77
2022-12-03T12:28:56.629Z,8.33
2022-12-03T12:32:00.769Z,8.16
2022-12-03T12:35:14.845Z,7.86
2022-12-03T12:38:18.326Z,7.84
2022-12-03T12:41:20.497Z,7.75
2022-12-03T12:44:23.593Z,7.62
2022-12-03T12:47:26.032Z,7.36
2022-12-03T12:50:31.017Z,7.25
2022-12-03T12:53:34.832Z,7.05
2022-12-03T12:56:37.077Z,6.85
2022-12-03T12:59:39.487Z,6.73
2022-12-03T13:02:44.272Z,6.55
2022-12-03T13:05:47.742Z,6.38
2022-12-03T13:08:50.338Z,6.43
2022-12-03T13:12:03.977Z,6.44
2022-12-03T13:15:07.850Z,6.38
2022-12-03T13:18:36.344Z,6.43
2022-12-03T13:21:39.865Z,6.56
2022-12-03T13:24:48.028Z,6.57
2022-12-03T13:27:50.548Z,6.54
2022-12-03T13:30:52.791Z,6.48
2022-12-03T13:33:55.489Z,6.50
2022-12-03T13:36:58.802Z,6.51
2022-12-03T13:40:08.168Z,6.59
2022-12-03T13:43:12.307Z,6.42
2022-12-03T13:46:16.069Z,6.31
2022-12-03T13:49:21.613Z,6.20
2022-12-03T13:52:26.756Z,6.20
2022-12-03T13:55:30.546Z,6.23
2022-12-03T13:58:32.470Z,6.13
2022-12-03T14:01:35.998Z,6.12
2022-12-03T14:04:39.068Z,6.22
2022-12-03T14:07:41.087Z,6.17
2022-12-03T14:10:43.404Z,6.13
2022-12-03T14:13:45.456Z,6.05
2022-12-03T14:16:47.876Z,6.03
2022-12-03T14:19:50.068Z,6.04
2022-12-03T14:22:58.860Z,5.94
2022-12-03T14:26:01.356Z,5.85
2022-12-03T14:29:08.545Z,5.84
2022-12-03T14:32:11.271Z,5.79
2022-12-03T14:35:13.633Z,5.79
2022-12-03T14:38:15.588Z,5.80
2022-12-03T14:41:36.878Z,5.84
2022-12-03T14:44:39.628Z,5.78
2022-12-03T14:47:42.176Z,5.74
2022-12-03T14:50:44.091Z,5.73
2022-12-03T14:53:46.432Z,5.66
2022-12-03T14:56:48.490Z,5.62
2022-12-03T14:59:50.944Z,5.53
2022-12-03T15:02:53.023Z,5.50
2022-12-03T15:05:55.723Z,5.47
2022-12-03T15:08:57.704Z,5.46
2022-12-03T15:12:00.085Z,5.48
2022-12-03T15:15:02.180Z,5.43
2022-12-03T15:18:07.035Z,5.41
2022-12-03T15:21:09.373Z,5.27
2022-12-03T15:24:11.709Z,5.30
2022-12-03T15:27:13.656Z,5.28
2022-12-03T15:30:16.238Z,5.27
2022-12-03T15:33:18.275Z,5.13
2022-12-03T15:36:20.594Z,5.11
2022-12-03T15:39:22.698Z,5.15
2022-12-03T15:42:24.929Z,5.02
2022-12-03T15:45:26.860Z,5.01
2022-12-03T15:48:29.526Z,4.97
2022-12-03T15:51:31.749Z,4.81
2022-12-03T15:54:36.874Z,4.95
2022-12-03T15:57:39.463Z,4.87
2022-12-03T16:00:42.483Z,4.83
2022-12-03T16:03:46.255Z,4.86
2022-12-03T16:06:48.225Z,4.82
2022-12-03T16:09:50.772Z,4.66
2022-12-03T16:12:52.700Z,4.69
2022-12-03T16:15:55.054Z,4.67
2022-12-03T16:18:57.120Z,4.63
2022-12-03T16:21:59.347Z,4.72
2022-12-03T16:25:03.144Z,4.64
2022-12-03T16:28:05.745Z,4.62
2022-12-03T16:31:07.829Z,4.63
2022-12-03T16:34:10.089Z,4.56
2022-12-03T16:37:12.169Z,4.45
2022-12-03T16:40:22.229Z,4.38
2022-12-03T16:43:24.124Z,4.40
2022-12-03T16:46:26.670Z,4.47
2022-12-03T16:49:28.888Z,4.51
2022-12-03T16:52:32.116Z,4.59
2022-12-03T16:55:34.026Z,4.47
2022-12-03T16:58:36.239Z,4.48
2022-12-03T17:01:38.236Z,4.40
2022-12-03T17:04:42.903Z,4.40
2022-12-03T17:07:45.330Z,4.35
2022-12-03T17:10:47.660Z,4.28
2022-12-03T17:13:50.826Z,4.36
2022-12-03T17:16:54.182Z,4.24
2022-12-03T17:19:56.484Z,4.33
2022-12-03T17:23:00.095Z,4.37
2022-12-03T17:26:02.416Z,4.38
2022-12-03T17:29:04.754Z,4.35
2022-12-03T17:32:06.799Z,4.35
2022-12-03T17:35:12.632Z,4.30
2022-12-03T17:38:15.036Z,4.30
2022-12-03T17:41:19.046Z,4.31
2022-12-03T17:44:21.564Z,4.32
2022-12-03T17:47:23.883Z,4.36
2022-12-03T17:50:25.854Z,4.28
2022-12-03T17:53:28.275Z,4.29
2022-12-03T17:56:30.264Z,4.16
2022-12-03T17:59:32.510Z,4.21
2022-12-03T18:02:36.799Z,4.24
2022-12-03T18:05:39.169Z,4.29
2022-12-03T18:08:41.077Z,4.21
2022-12-03T18:11:43.859Z,4.24
2022-12-03T18:14:46.128Z,4.12
2022-12-03T18:17:48.433Z,4.18
2022-12-03T18:20:51.572Z,4.21
2022-12-03T18:23:54.448Z,4.18
2022-12-03T18:26:56.375Z,4.16
2022-12-03T18:29:58.709Z,4.18
2022-12-03T18:33:00.686Z,4.16
2022-12-03T18:36:03.125Z,4.20
2022-12-03T18:39:06.129Z,4.13
2022-12-03T18:42:14.589Z,4.08
2022-12-03T18:45:17.673Z,4.07
2022-12-03T18:48:19.941Z,4.02
2022-12-03T18:51:24.825Z,4.09
2022-12-03T18:54:27.018Z,4.09
2022-12-03T18:57:29.302Z,4.11
2022-12-03T19:00:32.087Z,4.05
2022-12-03T19:03:34.182Z,4.04
2022-12-03T19:06:37.134Z,3.98
2022-12-03T19:09:39.566Z,3.96
2022-12-03T19:12:41.817Z,3.98
2022-12-03T19:15:43.801Z,3.92
2022-12-03T19:18:46.267Z,3.89
2022-12-03T19:21:48.298Z,3.93
2022-12-03T19:24:50.520Z,3.88
2022-12-03T19:27:56.626Z,3.82
2022-12-03T19:31:03.018Z,3.86
2022-12-03T19:34:04.993Z,3.79
2022-12-03T19:37:07.243Z,3.86
2022-12-03T19:40:10.389Z,3.82
2022-12-03T19:43:12.778Z,3.83
2022-12-03T19:46:14.885Z,3.78
2022-12-03T19:49:20.763Z,3.75
2022-12-03T19:52:22.748Z,3.77
2022-12-03T19:55:25.285Z,3.89
2022-12-03T19:58:27.180Z,3.89
2022-12-03T20:01:31.382Z,3.88
2022-12-03T20:04:33.740Z,3.92
2022-12-03T20:07:35.738Z,4.01
2022-12-03T20:10:38.161Z,3.91
2022-12-03T20:13:40.955Z,3.83
2022-12-03T20:16:43.971Z,3.98
2022-12-03T20:19:45.974Z,4.14
2022-12-03T20:22:48.297Z,4.08
2022-12-03T20:25:50.225Z,4.07
2022-12-03T20:28:53.515Z,4.10
2022-12-03T20:31:55.514Z,4.08
2022-12-03T20:34:57.813Z,4.11
2022-12-03T20:37:59.845Z,3.93
2022-12-03T20:41:07.114Z,4.05
2022-12-03T20:44:09.726Z,4.04
2022-12-03T20:47:11.935Z,4.08
2022-12-03T20:50:13.854Z,4.08
2022-12-03T20:53:24.664Z,4.03
2022-12-03T20:56:39.289Z,4.04
2022-12-03T20:59:41.676Z,4.15
2022-12-03T21:02:43.818Z,4.08
2022-12-03T21:05:46.208Z,4.08
2022-12-03T21:08:48.620Z,4.12
2022-12-03T21:11:50.942Z,4.14
2022-12-03T21:15:01.485Z,4.02
2022-12-03T21:18:03.839Z,4.04
2022-12-03T21:21:06.747Z,3.95
2022-12-03T21:24:10.402Z,3.94
2022-12-03T21:27:14.586Z,4.10
2022-12-03T21:30:20.654Z,4.07
2022-12-03T21:33:22.572Z,4.18
2022-12-03T21:36:25.387Z,4.22
2022-12-03T21:39:27.459Z,4.14
2022-12-03T21:42:35.475Z,4.08
2022-12-03T21:45:42.321Z,4.10
2022-12-03T21:48:45.094Z,4.18
2022-12-03T21:51:47.091Z,4.14
2022-12-03T21:54:52.172Z,4.19
2022-12-03T21:57:54.325Z,4.30
2022-12-03T22:00:56.639Z,4.36
2022-12-03T22:03:59.052Z,4.40
2022-12-03T22:07:01.228Z,4.40
2022-12-03T22:10:04.384Z,4.28
2022-12-03T22:13:06.431Z,4.30
2022-12-03T22:16:14.720Z,4.44
2022-12-03T22:19:16.678Z,4.29
2022-12-03T22:22:19.995Z,4.10
2022-12-03T22:25:22.312Z,4.08
2022-12-03T22:28:24.507Z,4.13
2022-12-03T22:31:26.561Z,4.09
2022-12-03T22:34:28.916Z,4.17
2022-12-03T22:37:32.788Z,4.19
2022-12-03T22:40:35.241Z,4.15
2022-12-03T22:43:37.180Z,4.16
2022-12-03T22:46:39.778Z,4.15
2022-12-03T22:49:41.895Z,4.07
2022-12-03T22:52:44.434Z,4.08
2022-12-03T22:55:54.142Z,4.18
2022-12-03T22:58:56.834Z,4.21
2022-12-03T23:02:01.265Z,4.10
2022-12-03T23:05:03.659Z,4.20
2022-12-03T23:08:07.928Z,4.20
2022-12-03T23:11:10.563Z,4.22
2022-12-03T23:14:12.882Z,4.19
2022-12-03T23:17:15.379Z,4.07
2022-12-03T23:20:17.530Z,4.09
2022-12-03T23:23:20.861Z,4.11
2022-12-03T23:26:22.800Z,4.17
2022-12-03T23:29:25.084Z,4.10
2022-12-03T23:32:28.325Z,4.08
2022-12-03T23:35:31.073Z,4.04
2022-12-03T23:38:33.109Z,4.11
2022-12-03T23:41:36.124Z,4.04
2022-12-03T23:44:38.185Z,3.98
2022-12-03T23:47:41.624Z,4.12
2022-12-03T23:50:43.783Z,4.04
2022-12-03T23:53:46.149Z,3.91
2022-12-03T23:56:48.233Z,3.83
2022-12-03T23:59:50.567Z,3.91
